Time;durP1;ratioP1;P1;durP2;ratioP2;P2;SDS_P1;SDS_P2;PMS_P1;PMS_P2;Temp;Humidity;BMP_temperature;BMP_pressure;BME280_temperature;BME280_humidity;BME280_pressure;Samples;Min_cycle;Max_cycle;Signal;HPM_P1;HPM_P2
2021/01/17 00:02:30;;;;;;;7.63;3.67;;;-0.50;99.90;;;;;;4936684;29;20520;-81
2021/01/17 00:04:56;;;;;;;17.43;6.83;;;;;;;;;;4923189;29;20059;-83
2021/01/17 00:07:22;;;;;;;10.40;5.17;;;;;;;;;;4923166;29;20051;-82
2021/01/17 00:09:48;;;;;;;9.30;4.32;;;;;;;;;;4922966;29;20075;-81
2021/01/17 00:12:15;;;;;;;16.27;7.45;;;;;;;;;;4923696;29;20044;-81
2021/01/17 00:14:41;;;;;;;10.20;4.65;;;;;;;;;;4923712;29;20048;-81
2021/01/17 00:17:08;;;;;;;12.55;6.43;;;-0.80;99.90;;;;;;4924378;29;20486;-80
2021/01/17 00:19:34;;;;;;;15.73;7.10;;;;;;;;;;4924043;29;20402;-81
2021/01/17 00:22:00;;;;;;;12.55;6.28;;;;;;;;;;4924188;29;20070;-81
2021/01/17 00:24:26;;;;;;;12.18;5.82;;;;;;;;;;4925110;29;20083;-81
2021/01/17 00:26:53;;;;;;;16.15;6.85;;;;;;;;;;4922645;29;20052;-81
2021/01/17 00:29:19;;;;;;;13.32;6.85;;;;;;;;;;4922623;29;20063;-83
2021/01/17 00:31:46;;;;;;;12.73;5.53;;;;;;;;;;4922713;29;20110;-82
2021/01/17 00:34:12;;;;;;;11.43;5.68;;;;;;;;;;4923280;29;20438;-82
2021/01/17 00:36:38;;;;;;;6.70;3.93;;;;;;;;;;4923396;29;20051;-82
2021/01/17 00:39:04;;;;;;;15.43;6.72;;;;;;;;;;4923101;29;20044;-82
2021/01/17 00:41:32;;;;;;;13.40;5.17;;;-0.70;99.90;;;;;;4922503;29;20055;-83
2021/01/17 00:43:58;;;;;;;10.83;3.90;;;;;;;;;;4923122;29;20063;-82
2021/01/17 00:46:25;;;;;;;14.18;6.72;;;;;;;;;;4922069;29;20402;-82
2021/01/17 00:48:51;;;;;;;16.90;7.22;;;;;;;;;;4921356;29;20048;-82
2021/01/17 00:51:17;;;;;;;11.63;6.40;;;;;;;;;;4921797;29;20075;-82
2021/01/17 00:53:43;;;;;;;12.02;5.40;;;;;;;;;;4922643;29;20405;-82
2021/01/17 00:56:09;;;;;;;17.07;7.40;;;;;;;;;;4922250;29;20111;-82
2021/01/17 00:58:35;;;;;;;7.40;3.73;;;;;;;;;;4921555;29;20139;-82
2021/01/17 01:01:01;;;;;;;9.77;5.33;;;;;;;;;;4923554;29;20083;-83
2021/01/17 01:03:28;;;;;;;15.73;7.03;;;-0.90;99.90;;;;;;4922552;29;20083;-82
2021/01/17 01:05:54;;;;;;;17.90;7.72;;;;;;;;;;4922001;29;20100;-81
2021/01/17 01:08:20;;;;;;;12.95;6.82;;;;;;;;;;4938529;29;20083;-81
2021/01/17 01:10:46;;;;;;;14.15;6.93;;;;;;;;;;4922009;29;20075;-82
2021/01/17 01:13:12;;;;;;;10.00;4.22;;;;;;;;;;4921862;29;20043;-82
2021/01/17 01:15:38;;;;;;;15.65;7.45;;;;;;;;;;4921798;29;20405;-82
2021/01/17 01:18:04;;;;;;;5.40;2.63;;;;;;;;;;4938201;29;20487;-81
2021/01/17 01:20:31;;;;;;;17.35;7.05;;;;;;;;;;4921344;29;20120;-82
2021/01/17 01:22:57;;;;;;;13.15;6.55;;;;;;;;;;4938592;29;20410;-81
2021/01/17 01:25:23;;;;;;;16.37;7.53;;;;;;;;;;4921618;29;20044;-82
2021/01/17 01:27:49;;;;;;;11.00;4.90;;;;;;;;;;4921355;29;20074;-82
2021/01/17 01:30:15;;;;;;;15.27;7.27;;;;;;;;;;4921297;29;20047;-82
2021/01/17 01:32:42;;;;;;;14.93;6.43;;;;;;;;;;4921376;29;20047;-82
2021/01/17 01:35:08;;;;;;;16.73;7.10;;;;;;;;;;4921394;29;20387;-82
2021/01/17 01:37:36;;;;;;;15.67;8.30;;;;;;;;;;4922029;29;20114;-82
2021/01/17 01:40:03;;;;;;;13.40;7.40;;;-1.20;99.90;;;;;;4942733;29;20048;-82
2021/01/17 01:42:29;;;;;;;24.27;8.27;;;;;;;;;;4926872;29;20414;-82
2021/01/17 01:44:54;;;;;;;13.10;6.90;;;-1.30;99.90;;;;;;4925843;29;20071;-82
2021/01/17 01:47:24;;;;;;;19.07;8.70;;;-1.00;99.90;;;;;;4926869;29;20039;-82
2021/01/17 01:49:52;;;;;;;18.23;7.85;;;-1.00;99.90;;;;;;4944804;29;20066;-82
2021/01/17 01:52:18;;;;;;;17.38;8.45;;;-1.00;99.90;;;;;;4945295;29;20074;-81
2021/01/17 01:54:44;;;;;;;12.83;6.87;;;-1.10;99.90;;;;;;4942443;29;20485;-82
2021/01/17 01:57:11;;;;;;;17.07;7.87;;;-1.00;99.90;;;;;;4942159;29;20148;-82
2021/01/17 01:59:37;;;;;;;16.90;8.00;;;-1.00;99.90;;;;;;4941760;29;20038;-82
2021/01/17 02:02:05;;;;;;;17.33;8.00;;;-1.10;99.90;;;;;;4941265;29;20059;-81
2021/01/17 02:04:31;;;;;;;17.10;8.07;;;-1.10;99.90;;;;;;4941526;29;20070;-81
2021/01/17 02:07:18;;;;;;;15.87;7.50;;;-1.00;99.90;;;;;;4941542;29;20077;-81
2021/01/17 02:09:45;;;;;;;12.00;5.82;;;-1.10;99.90;;;;;;4940906;29;20126;-81
2021/01/17 02:12:21;;;;;;;16.50;7.37;;;-1.10;99.90;;;;;;4941366;29;20039;-81
2021/01/17 02:14:53;;;;;;;18.97;8.90;;;-1.20;99.90;;;;;;4941495;29;20043;-81
2021/01/17 02:17:21;;;;;;;15.73;6.87;;;-1.00;99.90;;;;;;4940934;29;20066;-81
2021/01/17 02:20:09;;;;;;;6.53;2.53;;;-1.20;99.90;;;;;;4940688;29;20054;-82
2021/01/17 02:22:40;;;;;;;17.37;9.07;;;-1.10;99.90;;;;;;4958021;29;20050;-81
2021/01/17 02:25:09;;;;;;;17.60;8.20;;;-1.10;99.90;;;;;;4940860;29;20062;-81
2021/01/17 02:27:36;;;;;;;19.83;8.00;;;-1.00;99.90;;;;;;4941282;29;20412;-82
2021/01/17 02:30:06;;;;;;;16.27;7.10;;;-1.10;99.90;;;;;;4936496;29;20044;-81
2021/01/17 02:32:36;;;;;;;15.63;7.20;;;-1.00;99.90;;;;;;4938937;29;20040;-82
2021/01/17 02:35:03;;;;;;;16.42;7.78;;;-0.90;99.90;;;;;;4938826;29;20409;-81
2021/01/17 02:37:37;;;;;;;17.73;8.43;;;-0.90;99.90;;;;;;4938536;29;20421;-81
2021/01/17 02:40:06;;;;;;;18.80;9.02;;;-1.00;99.90;;;;;;4917291;29;20067;-81
2021/01/17 02:42:36;;;;;;;17.20;7.85;;;-1.00;99.90;;;;;;4902592;29;20039;-80
2021/01/17 02:45:02;;;;;;;23.90;9.23;;;-1.10;99.90;;;;;;4918189;29;20047;-81
2021/01/17 02:47:28;;;;;;;18.33;8.63;;;-1.00;99.90;;;;;;4935108;29;20043;-81
2021/01/17 02:49:54;;;;;;;21.75;8.82;;;-1.00;99.90;;;;;;4916633;29;20122;-81
2021/01/17 02:52:29;;;;;;;18.13;8.60;;;-0.80;99.90;;;;;;4917829;29;20080;-80
2021/01/17 02:54:55;;;;;;;21.57;9.23;;;-0.70;99.90;;;;;;4917321;29;20043;-81
2021/01/17 02:57:25;;;;;;;18.98;8.95;;;-0.60;99.90;;;;;;4934756;29;20043;-81
2021/01/17 02:59:57;;;;;;;17.50;9.10;;;-0.50;99.90;;;;;;4917181;29;20039;-82
2021/01/17 03:02:28;;;;;;;17.70;8.20;;;-0.40;99.90;;;;;;4917554;29;20039;-81
2021/01/17 03:04:57;;;;;;;16.50;8.50;;;-0.40;99.90;;;;;;4917349;29;20410;-81
2021/01/17 03:07:24;;;;;;;18.13;8.95;;;-0.40;99.90;;;;;;4922714;29;20122;-81
2021/01/17 03:09:50;;;;;;;19.30;8.60;;;-0.40;99.90;;;;;;4935602;29;20040;-81
2021/01/17 03:12:16;;;;;;;20.00;9.38;;;-0.30;99.90;;;;;;4936552;29;20067;-81
2021/01/17 03:14:43;;;;;;;17.40;8.73;;;-0.30;99.90;;;;;;4937053;29;20043;-80
2021/01/17 03:17:10;;;;;;;20.98;8.57;;;-0.20;99.90;;;;;;4938906;29;20508;-81
2021/01/17 03:19:36;;;;;;;20.45;9.20;;;-0.10;99.90;;;;;;4938929;29;20039;-81
2021/01/17 03:22:03;;;;;;;20.20;9.37;;;-0.10;99.90;;;;;;4939439;29;20086;-81
2021/01/17 03:24:28;;;;;;;20.02;8.95;;;-0.10;99.90;;;;;;4938889;29;20047;-81
2021/01/17 03:26:54;;;;;;;19.13;9.38;;;-0.20;99.90;;;;;;4956520;29;20523;-81
2021/01/17 03:29:20;;;;;;;17.25;7.95;;;-0.10;99.90;;;;;;4938701;29;20032;-81
2021/01/17 03:31:45;;;;;;;17.80;7.82;;;-0.30;99.90;;;;;;4956264;29;20440;-81
2021/01/17 03:34:12;;;;;;;20.75;9.93;;;-0.20;99.90;;;;;;4938832;29;20039;-81
2021/01/17 03:36:38;;;;;;;21.20;9.53;;;;;;;;;;4939026;29;20075;-81
2021/01/17 03:39:04;;;;;;;21.77;9.10;;;-0.30;99.90;;;;;;4936507;29;20050;-81
2021/01/17 03:41:30;;;;;;;18.92;8.68;;;-0.20;99.90;;;;;;4920245;29;20039;-81
2021/01/17 03:43:55;;;;;;;18.80;9.07;;;-0.20;99.90;;;;;;4919791;29;20095;-81
2021/01/17 03:46:21;;;;;;;20.33;9.35;;;-0.40;99.90;;;;;;4937087;29;20509;-81
2021/01/17 03:48:47;;;;;;;19.27;8.68;;;-0.40;99.90;;;;;;4919225;29;20576;-81
2021/01/17 03:51:13;;;;;;;23.30;10.23;;;-0.40;99.90;;;;;;4936724;29;20051;-81
2021/01/17 03:53:39;;;;;;;23.08;9.88;;;-0.40;99.90;;;;;;4919456;29;20051;-81
2021/01/17 03:56:05;;;;;;;20.02;9.73;;;-0.40;99.90;;;;;;4919557;29;20395;-81
2021/01/17 03:58:30;;;;;;;18.30;9.18;;;-0.30;99.90;;;;;;4919224;29;20035;-81
2021/01/17 04:00:56;;;;;;;20.17;9.57;;;-0.30;99.90;;;;;;4919571;29;20486;-81
2021/01/17 04:03:22;;;;;;;21.02;9.73;;;-0.20;99.90;;;;;;4919627;29;20039;-81
2021/01/17 04:05:47;;;;;;;23.58;10.63;;;-0.20;99.90;;;;;;4936151;29;20039;-81
2021/01/17 04:08:14;;;;;;;20.10;9.80;;;-0.20;99.90;;;;;;4919121;29;20047;-81
2021/01/17 04:10:39;;;;;;;21.50;9.23;;;-0.20;99.90;;;;;;4919463;29;20048;-81
2021/01/17 04:13:05;;;;;;;22.00;10.60;;;-0.20;99.90;;;;;;4919314;29;20042;-81
2021/01/17 04:15:31;;;;;;;18.73;9.30;;;-0.10;99.90;;;;;;4923258;29;20499;-81
2021/01/17 04:17:56;;;;;;;23.15;10.45;;;-0.10;99.90;;;;;;4938387;29;20043;-81
2021/01/17 04:20:22;;;;;;;20.98;9.93;;;-0.20;99.90;;;;;;4937968;29;20551;-80
2021/01/17 04:22:48;;;;;;;21.65;9.65;;;-0.20;99.90;;;;;;4938275;29;20043;-79
2021/01/17 04:25:14;;;;;;;27.17;10.85;;;-0.20;99.90;;;;;;4938015;29;20528;-79
2021/01/17 04:27:40;;;;;;;24.92;10.70;;;-0.20;99.90;;;;;;4938085;29;20051;-81
2021/01/17 04:30:07;;;;;;;22.67;10.13;;;-0.20;99.90;;;;;;4938040;29;20037;-81
2021/01/17 04:32:34;;;;;;;24.50;10.57;;;-0.30;99.90;;;;;;4938101;29;20039;-81
2021/01/17 04:34:59;;;;;;;23.60;10.52;;;-0.30;99.90;;;;;;4937653;29;20035;-81
2021/01/17 04:37:25;;;;;;;22.60;11.23;;;-0.20;99.90;;;;;;4937974;29;20051;-81
2021/01/17 04:39:51;;;;;;;22.35;10.43;;;-0.20;99.90;;;;;;4937809;29;20126;-81
2021/01/17 04:42:20;;;;;;;22.08;10.20;;;-0.20;99.90;;;;;;4938097;29;20067;-81
2021/01/17 04:44:50;;;;;;;24.13;10.77;;;-0.30;99.90;;;;;;4929634;29;20044;-81
2021/01/17 04:47:18;;;;;;;21.58;10.20;;;-0.30;99.90;;;;;;4919568;29;20131;-81
2021/01/17 04:49:47;;;;;;;22.17;10.70;;;-0.30;99.90;;;;;;4919005;29;20040;-81
2021/01/17 04:52:14;;;;;;;20.55;10.20;;;-0.40;99.90;;;;;;4920072;29;20036;-81
2021/01/17 04:54:40;;;;;;;23.55;10.90;;;-0.40;99.90;;;;;;4919032;29;20043;-81
2021/01/17 04:57:09;;;;;;;22.15;10.27;;;-0.40;99.90;;;;;;4918907;29;20506;-81
2021/01/17 04:59:46;;;;;;;29.55;11.82;;;-0.40;99.90;;;;;;4918473;29;20036;-80
2021/01/17 05:02:24;;;;;;;26.20;11.60;;;-0.40;99.90;;;;;;4936055;29;20402;-81
2021/01/17 05:05:15;;;;;;;27.73;11.90;;;-0.50;99.90;;;;;;4918728;29;20044;-81
2021/01/17 05:07:49;;;;;;;23.77;10.75;;;-0.50;99.90;;;;;;4925515;29;20072;-81
2021/01/17 05:10:32;;;;;;;26.88;10.77;;;-0.50;99.90;;;;;;4918383;29;20122;-81
2021/01/17 05:13:09;;;;;;;28.13;11.38;;;-0.60;99.90;;;;;;4919610;29;20044;-81
2021/01/17 05:15:38;;;;;;;21.25;9.00;;;-0.60;99.90;;;;;;4922208;29;20506;-81
2021/01/17 05:18:05;;;;;;;24.98;11.32;;;-0.60;99.90;;;;;;4939318;29;20055;-81
2021/01/17 05:20:30;;;;;;;25.13;11.50;;;-0.60;99.90;;;;;;4923004;29;20090;-81
2021/01/17 05:22:57;;;;;;;25.33;11.25;;;-0.60;99.90;;;;;;4922787;29;20513;-81
2021/01/17 05:25:25;;;;;;;28.25;11.23;;;-0.60;99.90;;;;;;4940216;29;20102;-82
2021/01/17 05:27:51;;;;;;;25.67;11.70;;;;;;;;;;4923575;29;20075;-82
2021/01/17 05:30:18;;;;;;;22.67;11.67;;;-0.50;99.90;;;;;;4923322;29;20137;-82
2021/01/17 05:32:50;;;;;;;28.10;12.55;;;-0.50;99.90;;;;;;4923366;29;20480;-81
2021/01/17 05:35:17;;;;;;;27.23;11.25;;;-0.50;99.90;;;;;;4922274;29;20445;-81
2021/01/17 05:37:48;;;;;;;26.42;11.52;;;-0.60;99.90;;;;;;4921989;29;20040;-81
2021/01/17 05:40:14;;;;;;;31.90;12.50;;;-0.70;99.90;;;;;;4921514;29;20107;-81
2021/01/17 05:42:41;;;;;;;25.55;11.90;;;-0.70;99.90;;;;;;4922194;29;20054;-81
2021/01/17 05:45:12;;;;;;;27.35;11.70;;;-0.60;99.90;;;;;;4921836;29;20043;-81
2021/01/17 05:47:38;;;;;;;26.50;12.27;;;;;;;;;;4937228;29;20065;-81
2021/01/17 05:50:07;;;;;;;25.50;12.02;;;-0.40;99.90;;;;;;4940256;29;20828;-81
2021/01/17 05:52:33;;;;;;;26.90;12.50;;;-0.40;99.90;;;;;;4940928;29;20501;-81
2021/01/17 05:54:59;;;;;;;28.67;11.73;;;-0.30;99.90;;;;;;4957886;29;20050;-81
2021/01/17 05:57:26;;;;;;;28.13;12.07;;;-0.30;99.90;;;;;;4940973;29;20046;-81
2021/01/17 05:59:52;;;;;;;26.58;12.70;;;-0.30;99.90;;;;;;4935309;29;20050;-82
2021/01/17 06:02:19;;;;;;;24.33;10.57;;;-0.30;99.90;;;;;;4918619;29;20036;-81
2021/01/17 06:04:49;;;;;;;26.52;12.38;;;-0.30;99.90;;;;;;4918336;29;20040;-82
2021/01/17 06:07:16;;;;;;;24.85;12.55;;;-0.30;99.90;;;;;;4918504;29;20050;-81
2021/01/17 06:09:43;;;;;;;28.48;12.85;;;-0.30;99.90;;;;;;4918215;29;20050;-81
2021/01/17 06:12:10;;;;;;;29.90;12.88;;;-0.30;99.90;;;;;;4918042;29;20048;-81
2021/01/17 06:14:36;;;;;;;29.05;12.48;;;-0.30;99.90;;;;;;4918197;29;20430;-81
2021/01/17 06:17:03;;;;;;;28.90;12.23;;;-0.40;99.90;;;;;;4918321;29;20333;-81
2021/01/17 06:19:35;;;;;;;28.20;13.07;;;-0.40;99.90;;;;;;4917948;29;20044;-81
2021/01/17 06:22:03;;;;;;;26.83;11.65;;;-0.50;99.90;;;;;;4935779;29;20048;-82
2021/01/17 06:24:37;;;;;;;29.70;11.70;;;-0.50;99.90;;;;;;4916784;29;20079;-81
2021/01/17 06:27:04;;;;;;;26.88;13.38;;;-0.60;99.90;;;;;;4918199;29;20058;-81
2021/01/17 06:29:41;;;;;;;29.00;11.63;;;-0.50;99.90;;;;;;4945803;29;20051;-81
2021/01/17 06:32:18;;;;;;;27.45;12.20;;;-0.70;99.90;;;;;;4937333;29;20074;-81
2021/01/17 06:34:49;;;;;;;23.83;11.07;;;-0.70;99.90;;;;;;4937131;29;20073;-81
2021/01/17 06:37:16;;;;;;;26.67;13.15;;;-0.80;99.90;;;;;;4937230;29;20137;-81
2021/01/17 06:39:49;;;;;;;33.13;13.40;;;-0.70;99.90;;;;;;4936419;29;20159;-81
2021/01/17 06:42:16;;;;;;;40.70;14.70;;;-0.70;99.90;;;;;;4937304;29;20437;-81
2021/01/17 06:44:42;;;;;;;35.47;13.83;;;-0.70;99.90;;;;;;4937971;29;20039;-82
2021/01/17 06:47:16;;;;;;;28.80;13.93;;;-0.70;99.90;;;;;;4936921;29;20125;-81
2021/01/17 06:49:42;;;;;;;35.90;14.82;;;-0.70;99.90;;;;;;4936389;29;20047;-81
2021/01/17 06:52:09;;;;;;;35.30;15.23;;;-0.60;99.90;;;;;;4954091;29;20054;-81
2021/01/17 06:54:36;;;;;;;35.58;15.02;;;-0.60;99.90;;;;;;4936777;29;20043;-82
2021/01/17 06:57:04;;;;;;;33.47;14.53;;;-0.50;99.90;;;;;;4936957;29;20512;-81
2021/01/17 06:59:37;;;;;;;35.88;15.45;;;-0.50;99.90;;;;;;4955139;28;20039;-80
2021/01/17 07:02:36;;;;;;;33.63;14.17;;;-0.50;99.90;;;;;;4938461;29;20073;-81
2021/01/17 07:05:35;;;;;;;34.28;14.88;;;-0.60;99.90;;;;;;4938430;29;20111;-80
2021/01/17 07:08:16;;;;;;;31.73;13.70;;;-0.60;99.90;;;;;;4937952;29;20130;-80
2021/01/17 07:10:44;;;;;;;30.45;13.57;;;-0.60;99.90;;;;;;4938339;29;20043;-81
2021/01/17 07:13:13;;;;;;;40.27;17.17;;;-0.60;99.90;;;;;;4937848;29;20043;-81
2021/01/17 07:15:40;;;;;;;34.92;16.05;;;-0.70;99.90;;;;;;4937157;29;20130;-81
2021/01/17 07:18:08;;;;;;;40.30;16.58;;;-0.70;99.90;;;;;;4935621;29;20051;-81
2021/01/17 07:20:36;;;;;;;33.33;15.45;;;-0.70;99.90;;;;;;4934830;29;20114;-81
2021/01/17 07:23:04;;;;;;;40.25;16.73;;;-0.60;99.90;;;;;;4935278;29;20043;-81
2021/01/17 07:25:30;;;;;;;39.80;16.55;;;-0.50;99.90;;;;;;4936073;29;20421;-81
2021/01/17 07:28:07;;;;;;;37.92;15.85;;;-0.50;99.90;;;;;;4936342;29;20138;-81
2021/01/17 07:30:44;;;;;;;36.25;16.50;;;0.90;99.90;;;;;;4936540;29;20051;-81
2021/01/17 07:33:11;;;;;;;38.28;16.95;;;-0.50;99.90;;;;;;4936293;29;20171;-81
2021/01/17 07:35:38;;;;;;;36.95;16.08;;;-0.40;99.90;;;;;;4936355;29;20485;-82
2021/01/17 07:38:10;;;;;;;42.55;17.60;;;-0.30;99.90;;;;;;4939959;29;20042;-82
2021/01/17 07:40:51;;;;;;;38.75;17.27;;;-0.30;99.90;;;;;;4921030;29;20049;-82
2021/01/17 07:43:22;;;;;;;33.88;16.30;;;-0.40;99.90;;;;;;4936759;29;20047;-82
2021/01/17 07:45:50;;;;;;;36.67;15.45;;;-0.50;99.90;;;;;;4936674;29;20043;-82
2021/01/17 07:48:17;;;;;;;40.57;16.17;;;-0.40;99.90;;;;;;4936394;29;20142;-82
2021/01/17 07:50:45;;;;;;;35.05;15.15;;;-0.30;99.90;;;;;;4937013;29;20047;-82
2021/01/17 07:53:32;;;;;;;35.50;15.68;;;-0.40;99.90;;;;;;4928765;29;20059;-82
2021/01/17 07:56:03;;;;;;;35.13;16.27;;;-0.50;99.90;;;;;;4938409;29;20462;-81
2021/01/17 07:58:32;;;;;;;34.58;15.88;;;-0.40;99.90;;;;;;4937907;29;20060;-82
2021/01/17 08:01:00;;;;;;;40.22;17.30;;;;;;;;;;4937394;29;20235;-82
2021/01/17 08:03:26;;;;;;;37.85;15.77;;;;;;;;;;4921351;29;20099;-82
2021/01/17 08:05:54;;;;;;;33.67;16.42;;;-0.40;99.90;;;;;;4921358;29;20143;-82
2021/01/17 08:08:48;;;;;;;33.73;15.77;;;-0.40;99.90;;;;;;4937427;29;20055;-82
2021/01/17 08:11:45;;;;;;;40.25;16.02;;;-0.50;99.90;;;;;;4938387;29;20135;-82
2021/01/17 08:14:22;;;;;;;36.70;14.75;;;-0.60;99.90;;;;;;4938604;29;20055;-82
2021/01/17 08:17:08;;;;;;;33.20;14.07;;;-0.60;99.90;;;;;;4952494;29;20054;-82
2021/01/17 08:19:35;;;;;;;40.92;17.20;;;-0.50;99.90;;;;;;4940650;29;20043;-82
2021/01/17 08:22:44;;;;;;;37.00;17.30;;;-0.40;99.90;;;;;;4941079;29;20043;-82
2021/01/17 08:25:10;;;;;;;36.95;16.90;;;;;;;;;;4940792;29;20138;-82
2021/01/17 08:27:38;;;;;;;43.05;17.90;;;-0.50;99.90;;;;;;4940115;29;20201;-81
2021/01/17 08:30:18;;;;;;;37.05;17.13;;;-0.50;99.90;;;;;;4939988;29;20043;-83
2021/01/17 08:32:49;;;;;;;38.17;17.85;;;-0.60;99.90;;;;;;4940108;29;20051;-83
2021/01/17 08:35:35;;;;;;;43.38;20.60;;;-0.70;99.90;;;;;;4940459;29;20047;-82
2021/01/17 08:38:19;;;;;;;37.35;18.25;;;-0.80;99.90;;;;;;4940831;29;20066;-83
2021/01/17 08:40:52;;;;;;;38.22;17.38;;;-0.70;99.90;;;;;;4941026;29;20524;-82
2021/01/17 08:43:19;;;;;;;37.10;15.80;;;;;;;;;;4941035;29;20084;-82
2021/01/17 08:45:46;;;;;;;43.25;18.77;;;-0.70;99.90;;;;;;4925459;29;20047;-82
2021/01/17 08:48:25;;;;;;;39.67;17.05;;;-0.70;99.90;;;;;;4922975;29;20035;-82
2021/01/17 08:50:52;;;;;;;38.70;16.30;;;-0.50;99.90;;;;;;4926633;29;20091;-82
2021/01/17 08:53:24;;;;;;;40.17;17.73;;;;;;;;;;4926655;29;20142;-83
2021/01/17 08:55:51;;;;;;;42.72;17.17;;;-0.60;99.90;;;;;;4926389;29;20084;-83
2021/01/17 08:58:45;;;;;;;39.35;16.40;;;-0.50;99.90;;;;;;4926226;29;20039;-83
2021/01/17 09:01:13;;;;;;;34.90;16.13;;;;;;;;;;4928278;29;20043;-83
2021/01/17 09:03:49;;;;;;;21.90;8.37;;;-0.60;99.90;;;;;;4928227;29;20111;-82
2021/01/17 09:06:27;;;;;;;30.83;14.25;;;-0.70;99.90;;;;;;4927502;29;20099;-83
2021/01/17 09:09:14;;;;;;;39.15;18.05;;;-0.70;99.90;;;;;;4927259;29;20055;-83
2021/01/17 09:11:41;;;;;;;31.63;13.25;;;;;;;;;;4922200;29;20062;-82
2021/01/17 09:14:11;;;;;;;49.85;20.65;;;;;;;;;;4927501;29;20511;-82
2021/01/17 09:16:42;;;;;;;6.50;2.87;;;-0.70;99.90;;;;;;4940939;29;20486;-81
2021/01/17 09:19:09;;;;;;;39.10;15.63;;;;;;;;;;4946207;29;20047;-82
2021/01/17 09:21:35;;;;;;;44.60;18.98;;;;;;;;;;4946672;29;20113;-82
2021/01/17 09:24:06;;;;;;;35.38;16.48;;;-0.60;99.90;;;;;;4945683;29;20054;-83
2021/01/17 09:26:33;;;;;;;47.67;20.37;;;;;;;;;;4947724;29;20047;-83
2021/01/17 09:28:59;;;;;;;37.88;18.48;;;;;;;;;;4947407;29;20055;-81
2021/01/17 09:31:29;;;;;;;37.97;16.98;;;-0.50;99.90;;;;;;4946716;29;20080;-83
2021/01/17 09:33:59;;;;;;;46.30;19.15;;;;;;;;;;4951461;29;20047;-83
2021/01/17 09:37:08;;;;;;;37.83;17.37;;;-0.40;99.90;;;;;;4949170;29;20066;-82
2021/01/17 09:47:22;;;;;;;43.88;20.42;;;-0.40;99.90;;;;;;4840653;29;20644;-83
2021/01/17 10:17:15;;;;;;;44.78;17.55;;;;;;;;;;5225949;23;20062;-83
2021/01/17 10:19:41;;;;;;;48.03;21.97;;;;;;;;;;4962735;29;20051;-84
2021/01/17 10:22:09;;;;;;;46.38;19.95;;;;;;;;;;4944678;29;20043;-83
2021/01/17 10:24:36;;;;;;;39.67;17.37;;;;;;;;;;4944451;29;20047;-83
2021/01/17 10:27:04;;;;;;;48.60;20.33;;;0.00;99.90;;;;;;4942077;29;20053;-83
2021/01/17 10:29:31;;;;;;;40.97;17.23;;;0.00;99.90;;;;;;4959220;28;20047;-83
2021/01/17 10:32:01;;;;;;;43.97;18.05;;;0.00;99.90;;;;;;4942487;29;20609;-83
2021/01/17 10:34:32;;;;;;;38.78;16.27;;;0.20;99.90;;;;;;4958849;29;20054;-82
2021/01/17 10:37:06;;;;;;;42.13;16.67;;;0.20;99.90;;;;;;4956372;29;20054;-82
2021/01/17 10:39:32;;;;;;;15.45;7.63;;;;;;;;;;4924001;29;20044;-82
2021/01/17 10:42:08;;;;;;;43.70;18.63;;;-0.10;99.90;;;;;;4924090;29;20438;-82
2021/01/17 10:44:41;;;;;;;44.25;19.52;;;0.00;99.90;;;;;;4931081;29;20055;-82
2021/01/17 10:47:13;;;;;;;32.22;13.73;;;0.00;99.90;;;;;;4960601;29;20105;-82
2021/01/17 10:49:39;;;;;;;30.48;13.30;;;;;;;;;;4941221;29;20042;-82
2021/01/17 10:52:15;;;;;;;46.63;18.38;;;0.10;99.90;;;;;;4941513;29;20047;-82
2021/01/17 10:54:42;;;;;;;38.60;17.53;;;;;;;;;;4958512;29;20098;-81
2021/01/17 10:57:09;;;;;;;45.45;18.58;;;0.30;99.90;;;;;;4940500;29;20075;-82
2021/01/17 10:59:35;;;;;;;44.97;18.85;;;;;;;;;;4939734;29;20130;-81
2021/01/17 11:02:01;;;;;;;37.05;15.15;;;0.20;99.90;;;;;;4927952;29;20480;-81
2021/01/17 11:04:37;;;;;;;42.20;16.75;;;0.20;99.90;;;;;;4920999;29;20053;-81
2021/01/17 11:07:03;;;;;;;38.22;17.48;;;0.10;99.90;;;;;;4921019;29;20404;-81
2021/01/17 11:09:30;;;;;;;39.88;17.75;;;;;;;;;;4920204;29;20043;-81
2021/01/17 11:11:55;;;;;;;38.63;16.58;;;0.20;99.90;;;;;;4919932;29;20111;-81
2021/01/17 11:14:25;;;;;;;45.78;19.00;;;0.20;99.90;;;;;;4920610;29;20482;-81
2021/01/17 11:16:52;;;;;;;46.83;20.10;;;0.20;99.90;;;;;;4937272;29;20063;-81
2021/01/17 11:19:18;;;;;;;39.97;17.92;;;0.30;99.90;;;;;;4920379;29;20146;-81
2021/01/17 11:21:45;;;;;;;42.30;17.95;;;0.30;99.90;;;;;;4919463;29;20454;-81
2021/01/17 11:24:11;;;;;;;37.95;16.63;;;;;;;;;;4920292;29;20043;-81
2021/01/17 11:26:37;;;;;;;38.08;17.10;;;;;;;;;;4920201;29;20050;-80
2021/01/17 11:29:04;;;;;;;36.60;16.20;;;0.20;99.90;;;;;;4919758;29;20561;-81
2021/01/17 11:31:31;;;;;;;43.58;18.77;;;0.30;99.90;;;;;;4920549;29;20050;-80
2021/01/17 11:33:57;;;;;;;43.10;18.42;;;0.40;99.90;;;;;;4936447;29;20069;-81
2021/01/17 11:36:25;;;;;;;48.38;19.13;;;0.50;99.90;;;;;;4939214;29;20557;-81
2021/01/17 11:38:56;;;;;;;42.78;19.00;;;0.40;99.90;;;;;;4939025;29;20039;-81
2021/01/17 11:41:31;;;;;;;37.25;17.48;;;0.50;99.90;;;;;;4939165;29;20047;-81
2021/01/17 11:44:07;;;;;;;43.50;20.65;;;0.30;99.90;;;;;;4939268;29;20047;-81
2021/01/17 11:46:34;;;;;;;47.23;20.43;;;0.30;99.90;;;;;;4939383;29;20093;-81
2021/01/17 11:49:00;;;;;;;41.97;18.60;;;0.20;99.90;;;;;;4955857;28;20043;-81
2021/01/17 11:51:26;;;;;;;43.90;17.23;;;0.30;99.90;;;;;;4924461;29;20504;-81
2021/01/17 11:53:51;;;;;;;47.27;19.63;;;0.40;99.90;;;;;;4920362;29;20036;-81
2021/01/17 11:56:17;;;;;;;42.90;18.23;;;0.30;99.90;;;;;;4917492;29;20521;-80
2021/01/17 11:58:43;;;;;;;44.50;19.23;;;0.50;99.90;;;;;;4918094;29;20454;-81
2021/01/17 12:01:09;;;;;;;39.75;18.15;;;0.60;99.90;;;;;;4917613;29;20059;-81
2021/01/17 12:03:36;;;;;;;44.22;18.50;;;0.50;99.90;;;;;;4918813;29;20130;-81
2021/01/17 12:06:05;;;;;;;43.47;17.70;;;0.70;99.90;;;;;;4919181;29;20044;-81
2021/01/17 12:08:55;;;;;;;37.55;18.13;;;0.80;99.90;;;;;;4917973;29;20040;-81
2021/01/17 12:11:28;;;;;;;43.45;19.45;;;0.80;99.90;;;;;;4933401;29;20043;-80
2021/01/17 12:13:55;;;;;;;41.05;18.80;;;0.60;99.90;;;;;;4918195;29;20126;-82
2021/01/17 12:16:27;;;;;;;41.13;16.85;;;0.80;99.90;;;;;;4918576;29;20043;-81
2021/01/17 12:18:53;;;;;;;39.97;17.33;;;0.90;99.90;;;;;;4918497;29;20047;-82
2021/01/17 12:21:23;;;;;;;44.88;18.85;;;0.90;99.90;;;;;;4919963;29;20071;-82
2021/01/17 12:23:48;;;;;;;43.85;16.85;;;0.70;99.90;;;;;;4920803;29;20039;-82
2021/01/17 12:26:16;;;;;;;43.37;18.23;;;0.80;99.90;;;;;;4920525;29;20062;-82
2021/01/17 12:28:42;;;;;;;31.45;14.10;;;;;;;;;;4920253;29;20498;-82
2021/01/17 12:31:09;;;;;;;37.22;16.23;;;0.80;99.90;;;;;;4921576;29;20516;-82
2021/01/17 12:33:35;;;;;;;40.88;18.17;;;;;;;;;;4921284;29;20513;-83
2021/01/17 12:36:02;;;;;;;36.03;16.27;;;;;;;;;;4921552;29;20117;-82
2021/01/17 12:38:28;;;;;;;43.88;17.88;;;;;;;;;;4921531;29;20048;-82
2021/01/17 12:40:54;;;;;;;38.10;18.52;;;;;;;;;;4934667;29;20057;-82
2021/01/17 12:43:21;;;;;;;41.17;20.15;;;;;;;;;;4941359;29;20424;-83
2021/01/17 12:45:47;;;;;;;36.30;16.20;;;;;;;;;;4924963;29;20059;-84
2021/01/17 12:48:13;;;;;;;42.58;18.67;;;;;;;;;;4924636;29;20461;-84
2021/01/17 12:50:39;;;;;;;31.95;12.80;;;;;;;;;;4928614;29;20375;-84
2021/01/17 22:21:56;;;;;;;51.95;19.77;;;1.80;99.90;;;;;;4961101;29;20034;-83
2021/01/17 22:25:36;;;;;;;57.73;19.70;;;1.80;99.90;;;;;;4927033;29;20103;-84
2021/01/17 22:46:26;;;;;;;59.97;21.02;;;1.90;99.90;;;;;;4870720;29;20044;-83
2021/01/17 22:53:13;;;;;;;48.55;18.27;;;2.00;99.90;;;;;;4863537;29;20106;-82
2021/01/17 22:56:39;;;;;;;44.53;17.77;;;2.10;99.90;;;;;;4825112;29;20054;-85
